Melbourne International Airport
KMLB : now visible

Airfield :











YOU CAN JOIN US ON...

 
LOGIN :

Register | Disclaimer

   EN    FR    IT 

 









Legend :    VFR   Marginal VFR   IFR   Intensive IFR   Very Intensive IFR
Visi :
Ceiling :
>= 8 km
>= 3000ft
5 to 8 km
1000 to 3000 ft
1500m to 5 km
500 to 1000 ft
800 to 1500m
200 to 500 ft
< 800m
< 200 ft
Symbols :   Thunderstorms  Fog  Heavy snow  Heavy precipitations  Wind > 20 kt






- Airport Elevation : 33 ft
- IATA code : MLB


KMLB - Melbourne International

CURRENT METAR :
  • 271753Z 27006KT 10SM OVC080 20/10 A2994 RMK AO2 SLP136 T02000100 10200 20133 58018

EXPIRED METARs :
  • 271653Z 28005KT 10SM FEW065 BKN080 OVC100 19/09 A2998 RMK AO2 SLP150 T01890089
  • 271553Z 00000KT 10SM OVC100 18/11 A3000 RMK AO2 SLP159 T01780106

TAF KMLB
Valid from the 27 at 18:00 until the 28 at 18:00 UTC


271738Z 2718/2818 VRB05KT P6SM OVC080
FM272000 06007KT P6SM SCT050 BKN070 BKN250
FM280000 36003KT P6SM BKN050
FM280800 33005KT P6SM SCT050
FM281500 01008KT P6SM FEW045



MET'MAP, your aeronautical weather chart ! - Copyright ORBIFLY December 2007 - Disclaimer

ORBIFLY MET'MAP TEAM :

Programming & Development : Alexandra Zaïnal
Concept & original design : Baudouin d'Aumeries
Assistance for programming : Marc-Olivier Méhu
Technical & hardware support : Manuel Goepfert

Contact : metmap@orbifly.com




SOURCES & CREDITS :

   NOAA       Earth
Advisory